createdAt,value
2018-10-18T00:01:59.302Z,20.40
2018-10-18T00:04:27.582Z,19.30
2018-10-18T00:06:56.015Z,19.70
2018-10-18T00:09:24.320Z,20.97
2018-10-18T00:11:52.693Z,21.87
2018-10-18T00:14:21.201Z,20.37
2018-10-18T00:16:49.486Z,18.90
2018-10-18T00:19:17.796Z,19.73
2018-10-18T00:21:46.216Z,20.40
2018-10-18T00:24:14.667Z,20.27
2018-10-18T00:26:42.836Z,21.67
2018-10-18T00:29:11.206Z,20.30
2018-10-18T00:31:39.504Z,19.40
2018-10-18T00:34:07.867Z,20.43
2018-10-18T00:36:36.206Z,22.10
2018-10-18T00:39:06.958Z,20.60
2018-10-18T00:41:36.360Z,22.50
2018-10-18T00:44:05.685Z,21.17
2018-10-18T00:46:34.052Z,21.27
2018-10-18T00:49:02.355Z,21.40
2018-10-18T00:51:30.711Z,19.33
2018-10-18T00:53:59.033Z,20.87
2018-10-18T00:56:27.361Z,20.43
2018-10-18T00:58:55.708Z,20.10
2018-10-18T01:01:24.007Z,19.77
2018-10-18T01:03:52.439Z,19.80
2018-10-18T01:06:20.772Z,19.67
2018-10-18T01:08:49.443Z,19.50
2018-10-18T01:11:17.740Z,20.10
2018-10-18T01:13:46.059Z,21.13
2018-10-18T01:16:14.508Z,20.40
2018-10-18T01:18:48.463Z,21.00
2018-10-18T01:21:16.868Z,20.03
2018-10-18T01:23:45.169Z,19.10
2018-10-18T01:26:13.554Z,21.13
2018-10-18T01:28:41.816Z,20.43
2018-10-18T01:31:10.127Z,19.03
2018-10-18T01:33:38.516Z,18.73
2018-10-18T01:36:06.865Z,19.10
2018-10-18T01:38:35.175Z,19.80
2018-10-18T01:41:03.547Z,20.03
2018-10-18T01:43:31.817Z,19.73
2018-10-18T01:46:04.330Z,20.10
2018-10-18T01:48:32.671Z,19.90
2018-10-18T01:51:01.008Z,21.90
2018-10-18T01:53:29.308Z,19.83
2018-10-18T01:55:57.797Z,20.60
2018-10-18T01:58:26.275Z,19.60
2018-10-18T02:00:54.703Z,19.87
2018-10-18T02:03:23.093Z,20.37
2018-10-18T02:05:51.546Z,19.00
2018-10-18T02:08:19.793Z,20.65
2018-10-18T02:10:48.096Z,20.43
2018-10-18T02:13:16.545Z,19.87
2018-10-18T02:15:44.864Z,20.50
2018-10-18T02:18:13.220Z,20.25
2018-10-18T02:20:41.443Z,21.90
2018-10-18T02:23:09.749Z,21.80
2018-10-18T02:25:38.074Z,22.00
2018-10-18T02:28:06.691Z,22.13
2018-10-18T02:30:35.107Z,20.10
2018-10-18T02:33:03.434Z,20.97
2018-10-18T02:35:31.705Z,21.37
2018-10-18T02:38:00.190Z,21.37
2018-10-18T02:40:28.438Z,20.70
2018-10-18T02:42:56.766Z,20.65
2018-10-18T02:45:25.217Z,19.70
2018-10-18T02:47:53.506Z,21.27
2018-10-18T02:50:21.880Z,21.05
2018-10-18T02:52:50.264Z,21.33
2018-10-18T02:55:18.747Z,21.37
2018-10-18T02:57:47.479Z,21.17
2018-10-18T03:00:15.911Z,20.90
2018-10-18T03:02:44.392Z,21.68
2018-10-18T03:05:12.690Z,20.37
2018-10-18T03:07:41.071Z,19.80
2018-10-18T03:10:09.723Z,20.55
2018-10-18T03:12:38.054Z,20.12
2018-10-18T03:15:07.712Z,21.00
2018-10-18T03:17:36.004Z,20.40
2018-10-18T03:20:04.305Z,21.17
2018-10-18T03:22:32.832Z,20.12
2018-10-18T03:25:01.176Z,20.60
2018-10-18T03:27:29.579Z,21.33
2018-10-18T03:29:57.963Z,20.48
2018-10-18T03:32:26.255Z,20.32
2018-10-18T03:34:54.742Z,19.30
2018-10-18T03:37:23.161Z,21.87
2018-10-18T03:39:51.465Z,21.45
2018-10-18T03:42:19.891Z,20.50
2018-10-18T03:44:48.093Z,22.17
2018-10-18T03:47:16.482Z,21.02
2018-10-18T03:49:45.243Z,19.87
2018-10-18T03:52:13.541Z,22.30
2018-10-18T03:54:41.814Z,20.33
2018-10-18T03:57:10.220Z,19.65
2018-10-18T03:59:38.533Z,21.45
2018-10-18T04:02:06.801Z,21.33
2018-10-18T04:04:35.208Z,21.77
2018-10-18T04:07:03.513Z,20.77
2018-10-18T04:09:31.866Z,20.85
2018-10-18T04:12:00.473Z,22.58
2018-10-18T04:14:28.745Z,22.00
2018-10-18T04:16:57.212Z,22.07
2018-10-18T04:19:25.652Z,20.00
2018-10-18T04:21:54.549Z,21.53
2018-10-18T04:24:22.933Z,21.87
2018-10-18T04:26:51.234Z,21.42
2018-10-18T04:29:19.811Z,22.37
2018-10-18T04:31:48.160Z,21.90
2018-10-18T04:34:16.514Z,21.57
2018-10-18T04:36:44.939Z,22.77
2018-10-18T04:39:13.983Z,21.70
2018-10-18T04:41:42.514Z,22.48
2018-10-18T04:44:10.826Z,22.90
2018-10-18T04:46:39.307Z,22.30
2018-10-18T04:49:07.749Z,23.32
2018-10-18T04:51:36.130Z,22.60
2018-10-18T04:54:04.555Z,21.00
2018-10-18T04:56:32.904Z,22.32
2018-10-18T04:59:01.204Z,23.02
2018-10-18T05:01:29.538Z,24.47
2018-10-18T05:03:57.813Z,24.10
2018-10-18T05:06:26.248Z,23.70
2018-10-18T05:08:54.673Z,23.75
2018-10-18T05:11:23.084Z,23.80
2018-10-18T05:13:51.422Z,23.00
2018-10-18T05:16:19.780Z,36.75
2018-10-18T05:18:48.838Z,28.85
2018-10-18T05:21:17.258Z,21.05
2018-10-18T05:23:45.920Z,21.77
2018-10-18T05:26:14.248Z,21.87
2018-10-18T05:28:42.648Z,22.45
2018-10-18T05:31:11.300Z,21.45
2018-10-18T05:33:39.604Z,20.68
2018-10-18T05:36:08.047Z,22.42
2018-10-18T05:38:36.495Z,22.42
2018-10-18T05:41:04.934Z,22.40
2018-10-18T05:43:33.259Z,22.67
2018-10-18T05:46:01.516Z,22.62
2018-10-18T05:48:29.859Z,22.42
2018-10-18T05:50:58.151Z,23.27
2018-10-18T05:53:26.583Z,22.75
2018-10-18T05:55:54.975Z,41.13
2018-10-18T05:58:23.379Z,35.55
2018-10-18T06:00:51.861Z,22.90
2018-10-18T06:03:20.287Z,22.32
2018-10-18T06:05:48.622Z,22.52
2018-10-18T06:08:16.937Z,24.07
2018-10-18T06:10:56.490Z,24.92
2018-10-18T06:13:24.823Z,24.23
2018-10-18T06:15:53.183Z,21.63
2018-10-18T06:18:21.508Z,22.85
2018-10-18T06:20:49.853Z,22.58
2018-10-18T06:23:18.274Z,22.95
2018-10-18T06:25:46.524Z,23.40
2018-10-18T06:28:14.854Z,23.83
2018-10-18T06:30:43.169Z,24.57
2018-10-18T06:33:11.733Z,22.57
2018-10-18T06:35:40.039Z,22.85
2018-10-18T06:38:08.586Z,23.60
2018-10-18T06:40:37.013Z,24.10
2018-10-18T06:43:05.557Z,23.85
2018-10-18T06:45:34.010Z,27.22
2018-10-18T06:48:02.499Z,24.07
2018-10-18T06:50:30.726Z,24.00
2018-10-18T06:52:59.075Z,24.32
2018-10-18T06:55:27.516Z,25.77
2018-10-18T06:57:55.818Z,29.17
2018-10-18T07:00:25.169Z,24.45
2018-10-18T07:02:53.473Z,26.90
2018-10-18T07:05:21.776Z,26.33
2018-10-18T07:07:50.082Z,23.67
2018-10-18T07:10:18.490Z,25.33
2018-10-18T07:12:47.057Z,24.63
2018-10-18T07:15:15.836Z,24.97
2018-10-18T07:17:44.735Z,23.80
2018-10-18T07:20:13.727Z,25.17
2018-10-18T07:22:42.349Z,23.87
2018-10-18T07:25:12.175Z,23.85
2018-10-18T07:27:41.107Z,24.23
2018-10-18T07:30:11.371Z,23.80
2018-10-18T07:32:39.771Z,23.70
2018-10-18T07:35:09.228Z,24.23
2018-10-18T07:37:37.728Z,22.60
2018-10-18T07:40:07.655Z,29.13
2018-10-18T07:42:35.996Z,23.63
2018-10-18T07:45:04.367Z,24.77
2018-10-18T07:47:32.696Z,22.20
2018-10-18T07:50:01.009Z,22.40
2018-10-18T07:52:29.398Z,23.40
2018-10-18T07:54:57.809Z,24.30
2018-10-18T07:57:26.179Z,23.90
2018-10-18T07:59:54.668Z,26.33
2018-10-18T08:02:22.940Z,26.03
2018-10-18T08:04:51.293Z,27.07
2018-10-18T08:07:19.958Z,27.07
2018-10-18T08:09:48.275Z,24.83
2018-10-18T08:12:16.583Z,27.00
2018-10-18T08:14:44.941Z,26.17
2018-10-18T08:17:13.350Z,28.47
2018-10-18T08:19:41.609Z,28.90
2018-10-18T08:22:09.904Z,29.83
2018-10-18T08:24:38.261Z,29.80
2018-10-18T08:27:06.597Z,27.33
2018-10-18T08:29:34.920Z,29.90
2018-10-18T08:32:03.284Z,33.77
2018-10-18T08:34:31.663Z,30.90
2018-10-18T08:37:00.345Z,29.30
2018-10-18T08:39:28.648Z,29.97
2018-10-18T08:41:57.138Z,28.07
2018-10-18T08:44:25.689Z,36.20
2018-10-18T08:46:53.967Z,27.03
2018-10-18T08:49:22.316Z,26.53
2018-10-18T08:51:51.104Z,26.60
2018-10-18T08:54:19.408Z,27.13
2018-10-18T08:56:47.791Z,28.20
2018-10-18T08:59:16.177Z,28.47
2018-10-18T09:01:44.480Z,27.40
2018-10-18T09:04:12.793Z,28.70
2018-10-18T09:06:41.100Z,28.80
2018-10-18T09:09:10.010Z,28.20
2018-10-18T09:11:38.289Z,28.30
2018-10-18T09:14:07.143Z,28.10
2018-10-18T09:16:35.537Z,29.00
2018-10-18T09:19:04.138Z,30.23
2018-10-18T09:21:32.384Z,31.27
2018-10-18T09:24:00.778Z,28.97
2018-10-18T09:26:29.106Z,32.63
2018-10-18T09:28:57.460Z,31.07
2018-10-18T09:31:25.789Z,33.13
2018-10-18T09:33:54.094Z,31.93
2018-10-18T09:36:22.444Z,31.60
2018-10-18T09:38:50.731Z,32.90
2018-10-18T09:41:19.019Z,31.10
2018-10-18T09:43:47.543Z,30.47
2018-10-18T09:46:15.743Z,34.27
2018-10-18T09:48:44.042Z,31.07
2018-10-18T09:51:12.355Z,29.23
2018-10-18T09:53:40.669Z,30.67
2018-10-18T09:56:09.062Z,30.77
2018-10-18T09:58:37.310Z,29.87
2018-10-18T10:01:11.221Z,29.60
2018-10-18T10:03:39.464Z,29.50
2018-10-18T10:06:07.724Z,29.20
2018-10-18T10:08:36.099Z,29.13
2018-10-18T10:11:04.455Z,29.13
2018-10-18T10:13:32.855Z,28.43
2018-10-18T10:16:01.165Z,29.43
2018-10-18T10:18:29.487Z,29.83
2018-10-18T10:20:57.819Z,29.03
2018-10-18T10:23:26.281Z,30.63
2018-10-18T10:25:54.750Z,30.20
2018-10-18T10:28:23.210Z,30.70
2018-10-18T10:30:51.582Z,29.90
2018-10-18T10:33:20.056Z,31.33
2018-10-18T10:35:48.413Z,34.30
2018-10-18T10:38:16.808Z,32.70
2018-10-18T10:40:45.114Z,35.33
2018-10-18T10:43:13.405Z,36.17
2018-10-18T10:45:48.247Z,35.83
2018-10-18T10:48:16.689Z,34.97
2018-10-18T10:50:44.972Z,34.53
2018-10-18T10:53:13.385Z,34.67
2018-10-18T10:55:41.700Z,33.90
2018-10-18T10:58:10.157Z,35.57
2018-10-18T11:01:13.892Z,35.73
2018-10-18T11:03:42.905Z,32.20
2018-10-18T11:06:11.590Z,32.53
2018-10-18T11:08:39.853Z,36.30
2018-10-18T11:11:08.664Z,31.47
2018-10-18T11:13:37.045Z,35.10
2018-10-18T11:16:06.691Z,34.40
2018-10-18T11:18:35.991Z,34.23
2018-10-18T11:21:05.316Z,33.27
2018-10-18T11:23:34.226Z,32.73
2018-10-18T11:26:02.764Z,32.80
2018-10-18T11:28:31.031Z,35.00
2018-10-18T11:30:59.424Z,33.60
2018-10-18T11:33:27.746Z,34.70
2018-10-18T11:35:56.210Z,34.40
2018-10-18T11:38:24.502Z,33.60
2018-10-18T11:40:53.379Z,33.43
2018-10-18T11:43:22.049Z,32.90
2018-10-18T11:45:50.374Z,30.93
2018-10-18T11:48:18.844Z,32.07
2018-10-18T11:50:47.234Z,33.53
2018-10-18T11:53:15.595Z,33.30
2018-10-18T11:55:43.969Z,31.50
2018-10-18T11:58:12.950Z,32.90
2018-10-18T12:00:41.528Z,32.20
2018-10-18T12:03:09.957Z,28.77
2018-10-18T12:05:39.247Z,29.50
2018-10-18T12:08:08.313Z,28.33
2018-10-18T12:10:36.561Z,25.20
2018-10-18T12:13:04.902Z,27.63
2018-10-18T12:15:33.827Z,27.40
2018-10-18T12:18:02.117Z,26.33
2018-10-18T12:20:31.231Z,25.10
2018-10-18T12:23:00.049Z,26.40
2018-10-18T12:25:28.432Z,23.10
2018-10-18T12:27:56.888Z,24.30
2018-10-18T12:30:25.228Z,25.13
2018-10-18T12:32:53.493Z,25.60
2018-10-18T12:35:21.832Z,25.90
2018-10-18T12:37:50.117Z,23.67
2018-10-18T12:40:18.588Z,25.20
2018-10-18T12:42:48.084Z,23.63
2018-10-18T12:45:16.543Z,23.00
2018-10-18T12:47:44.986Z,20.97
2018-10-18T12:50:13.346Z,20.77
2018-10-18T12:52:41.664Z,22.17
2018-10-18T12:55:10.095Z,22.43
2018-10-18T12:57:38.383Z,20.90
2018-10-18T13:00:08.339Z,22.00
2018-10-18T13:02:36.820Z,24.33
2018-10-18T13:05:06.440Z,21.63
2018-10-18T13:07:34.958Z,23.53
2018-10-18T13:10:03.712Z,25.73
2018-10-18T13:12:32.227Z,22.87
2018-10-18T13:15:00.517Z,21.30
2018-10-18T13:17:28.866Z,24.90
2018-10-18T13:19:57.267Z,22.17
2018-10-18T13:22:25.564Z,21.83
2018-10-18T13:24:54.036Z,21.73
2018-10-18T13:27:22.342Z,22.63
2018-10-18T13:29:50.633Z,21.50
2018-10-18T13:32:19.567Z,21.80
2018-10-18T13:34:47.878Z,21.23
2018-10-18T13:37:16.365Z,24.30
2018-10-18T13:39:44.720Z,22.50
2018-10-18T13:42:13.118Z,21.63
2018-10-18T13:44:41.327Z,22.10
2018-10-18T13:47:09.731Z,21.60
2018-10-18T13:49:38.381Z,21.53
2018-10-18T13:52:06.701Z,20.73
2018-10-18T13:54:35.096Z,20.27
2018-10-18T13:57:03.440Z,22.57
2018-10-18T13:59:43.262Z,23.37
2018-10-18T14:02:11.622Z,22.30
2018-10-18T14:04:39.881Z,22.43
2018-10-18T14:07:08.294Z,21.80
2018-10-18T14:09:36.672Z,20.40
2018-10-18T14:12:05.372Z,21.57
2018-10-18T14:14:33.770Z,20.00
2018-10-18T14:17:02.296Z,21.00
2018-10-18T14:19:30.533Z,18.30
2018-10-18T14:21:58.850Z,17.90
2018-10-18T14:24:27.185Z,20.07
2018-10-18T14:26:56.087Z,19.50
2018-10-18T14:29:24.377Z,18.30
2018-10-18T14:31:52.785Z,18.90
2018-10-18T14:34:21.267Z,19.17
2018-10-18T14:36:49.622Z,18.70
2018-10-18T14:39:18.010Z,17.70
2018-10-18T14:41:46.817Z,17.43
2018-10-18T14:44:15.143Z,19.40
2018-10-18T14:46:43.384Z,17.87
2018-10-18T14:49:11.719Z,17.10
2018-10-18T14:51:40.113Z,19.10
2018-10-18T14:54:08.470Z,18.10
2018-10-18T14:56:37.245Z,19.97
2018-10-18T14:59:05.763Z,18.27
2018-10-18T15:01:34.066Z,16.90
2018-10-18T15:04:02.549Z,15.63
2018-10-18T15:06:30.915Z,17.87
2018-10-18T15:08:59.241Z,17.70
2018-10-18T15:11:27.602Z,17.90
2018-10-18T15:13:56.081Z,17.50
2018-10-18T15:16:24.411Z,15.33
2018-10-18T15:18:52.761Z,16.23
2018-10-18T15:21:21.060Z,17.20
2018-10-18T15:23:49.386Z,17.53
2018-10-18T15:26:17.894Z,15.50
2018-10-18T15:28:46.148Z,15.47
2018-10-18T15:31:14.535Z,17.00
2018-10-18T15:33:42.823Z,18.73
2018-10-18T15:36:11.171Z,16.90
2018-10-18T15:38:39.601Z,17.03
2018-10-18T15:41:07.881Z,17.10
2018-10-18T15:43:36.226Z,17.20
2018-10-18T15:46:05.377Z,16.63
2018-10-18T15:48:33.933Z,41.77
2018-10-18T15:51:02.578Z,30.03
2018-10-18T15:53:30.906Z,14.70
2018-10-18T15:55:59.195Z,15.73
2018-10-18T15:58:27.558Z,16.10
2018-10-18T16:00:55.805Z,15.83
2018-10-18T16:03:24.224Z,15.93
2018-10-18T16:05:52.552Z,14.80
2018-10-18T16:08:20.974Z,15.70
2018-10-18T16:10:49.349Z,15.13
2018-10-18T16:13:17.680Z,14.53
2018-10-18T16:15:46.175Z,15.57
2018-10-18T16:18:14.578Z,14.23
2018-10-18T16:20:42.974Z,14.10
2018-10-18T16:23:11.464Z,14.90
2018-10-18T16:25:39.744Z,14.70
2018-10-18T16:28:08.314Z,14.47
2018-10-18T16:30:36.650Z,14.57
2018-10-18T16:33:05.428Z,12.37
2018-10-18T16:35:33.826Z,14.73
2018-10-18T16:38:02.346Z,13.07
2018-10-18T16:40:30.665Z,13.67
2018-10-18T16:42:58.922Z,14.53
2018-10-18T16:45:27.474Z,14.50
2018-10-18T16:47:55.927Z,14.67
2018-10-18T16:50:24.339Z,15.50
2018-10-18T16:52:52.647Z,13.47
2018-10-18T16:55:20.986Z,15.20
2018-10-18T16:57:49.340Z,14.37
2018-10-18T17:00:18.535Z,15.60
2018-10-18T17:02:46.708Z,14.30
2018-10-18T17:05:15.081Z,15.93
2018-10-18T17:07:43.680Z,12.97
2018-10-18T17:10:12.181Z,14.80
2018-10-18T17:12:40.448Z,14.87
2018-10-18T17:15:08.909Z,17.43
2018-10-18T17:17:37.588Z,15.43
2018-10-18T17:20:07.042Z,15.77
2018-10-18T17:22:35.355Z,15.70
2018-10-18T17:25:03.678Z,16.20
2018-10-18T17:27:32.212Z,17.53
2018-10-18T17:30:00.604Z,16.30
2018-10-18T17:32:28.827Z,17.70
2018-10-18T17:34:57.267Z,16.97
2018-10-18T17:37:25.544Z,17.67
2018-10-18T17:39:57.307Z,18.30
2018-10-18T17:42:25.812Z,18.67
2018-10-18T17:44:54.247Z,17.60
2018-10-18T17:47:22.601Z,17.17
2018-10-18T17:49:50.966Z,18.17
2018-10-18T17:52:19.291Z,17.90
2018-10-18T17:54:47.707Z,18.70
2018-10-18T17:57:15.986Z,17.80
2018-10-18T17:59:47.107Z,18.67
2018-10-18T18:02:15.546Z,19.50
2018-10-18T18:04:43.914Z,18.57
2018-10-18T18:07:12.256Z,20.87
2018-10-18T18:09:40.597Z,22.00
2018-10-18T18:12:09.151Z,21.13
2018-10-18T18:14:37.564Z,21.20
2018-10-18T18:17:06.088Z,21.33
2018-10-18T18:22:06.848Z,22.03
2018-10-18T18:24:37.245Z,20.93
2018-10-18T18:27:05.694Z,21.30
2018-10-18T18:29:34.011Z,21.73
2018-10-18T18:32:02.328Z,21.70
2018-10-18T18:34:30.604Z,19.87
2018-10-18T18:36:58.976Z,21.37
2018-10-18T18:39:27.542Z,21.53
2018-10-18T18:41:55.900Z,21.10
2018-10-18T18:44:24.599Z,23.97
2018-10-18T18:46:52.977Z,23.73
2018-10-18T18:49:21.451Z,22.87
2018-10-18T18:51:49.804Z,21.80
2018-10-18T18:54:18.485Z,23.80
2018-10-18T18:56:46.886Z,24.00
2018-10-18T18:59:15.402Z,23.00
2018-10-18T19:01:43.846Z,22.23
2018-10-18T19:04:12.661Z,21.60
2018-10-18T19:06:41.020Z,20.07
2018-10-18T19:09:09.969Z,21.00
2018-10-18T19:11:38.745Z,23.03
2018-10-18T19:14:07.649Z,22.97
2018-10-18T19:16:36.033Z,21.60
2018-10-18T19:19:05.021Z,24.13
2018-10-18T19:23:43.459Z,24.27
2018-10-18T19:26:11.912Z,24.70
2018-10-18T19:28:40.370Z,26.80
2018-10-18T19:31:08.849Z,25.67
2018-10-18T19:33:37.240Z,26.97
2018-10-18T19:36:05.881Z,27.63
2018-10-18T19:38:34.249Z,27.37
2018-10-18T19:41:02.590Z,27.90
2018-10-18T19:43:30.992Z,27.63
2018-10-18T19:45:59.381Z,27.80
2018-10-18T19:48:27.922Z,28.53
2018-10-18T19:50:56.222Z,27.40
2018-10-18T19:53:24.596Z,27.47
2018-10-18T19:55:52.977Z,28.83
2018-10-18T19:58:21.387Z,26.37
2018-10-18T20:00:49.669Z,28.30
2018-10-18T20:03:18.086Z,26.80
2018-10-18T20:05:46.994Z,29.70
2018-10-18T20:08:15.370Z,26.70
2018-10-18T20:10:43.548Z,29.10
2018-10-18T20:13:11.895Z,30.27
2018-10-18T20:15:40.216Z,28.80
2018-10-18T20:18:08.546Z,29.60
2018-10-18T20:20:36.946Z,29.10
2018-10-18T20:23:05.409Z,29.90
2018-10-18T20:25:33.856Z,32.33
2018-10-18T20:28:02.015Z,31.40
2018-10-18T20:30:30.240Z,33.03
2018-10-18T20:32:58.879Z,32.33
2018-10-18T20:35:27.414Z,31.07
2018-10-18T20:37:55.903Z,33.67
2018-10-18T20:40:24.200Z,35.77
2018-10-18T20:42:52.475Z,33.37
2018-10-18T20:45:24.892Z,32.70
2018-10-18T20:47:53.311Z,35.50
2018-10-18T20:50:21.457Z,31.47
2018-10-18T20:52:49.736Z,32.13
2018-10-18T20:55:18.901Z,33.53
2018-10-18T20:57:47.926Z,33.77
2018-10-18T21:00:16.329Z,34.43
2018-10-18T21:02:44.633Z,34.30
2018-10-18T21:05:13.075Z,33.77
2018-10-18T21:07:41.301Z,32.87
2018-10-18T21:10:09.808Z,35.77
2018-10-18T21:12:38.108Z,36.93
2018-10-18T21:15:06.512Z,35.07
2018-10-18T21:17:34.846Z,35.80
2018-10-18T21:20:03.178Z,33.70
2018-10-18T21:22:31.586Z,34.87
2018-10-18T21:24:59.900Z,34.83
2018-10-18T21:27:28.492Z,33.70
2018-10-18T21:29:56.778Z,35.47
2018-10-18T21:32:25.139Z,36.00
2018-10-18T21:34:53.429Z,33.57
2018-10-18T21:37:21.680Z,36.47
2018-10-18T21:39:49.984Z,37.83
2018-10-18T21:42:18.273Z,34.87
2018-10-18T21:44:47.092Z,36.67
2018-10-18T21:47:16.830Z,37.70
2018-10-18T21:49:45.256Z,38.37
2018-10-18T21:52:13.634Z,37.77
2018-10-18T21:54:42.016Z,36.50
2018-10-18T21:57:10.436Z,38.13
2018-10-18T21:59:38.987Z,35.07
2018-10-18T22:04:39.753Z,37.33
2018-10-18T22:07:08.048Z,37.00
2018-10-18T22:09:36.392Z,40.57
2018-10-18T22:12:05.017Z,37.03
2018-10-18T22:14:33.339Z,38.60
2018-10-18T22:17:01.805Z,38.97
2018-10-18T22:19:30.261Z,38.77
2018-10-18T22:21:58.535Z,39.20
2018-10-18T22:24:26.924Z,37.60
2018-10-18T22:26:55.316Z,39.97
2018-10-18T22:29:24.020Z,39.67
2018-10-18T22:31:52.361Z,39.43
2018-10-18T22:34:20.636Z,40.80
2018-10-18T22:36:48.966Z,41.90
2018-10-18T22:39:17.212Z,39.83
2018-10-18T22:41:45.710Z,40.60
2018-10-18T22:44:14.077Z,39.10
2018-10-18T22:46:42.363Z,38.10
2018-10-18T22:49:10.814Z,39.50
2018-10-18T22:51:39.226Z,41.20
2018-10-18T22:54:07.565Z,39.53
2018-10-18T22:56:36.158Z,39.53
2018-10-18T22:59:04.565Z,42.50
2018-10-18T23:01:32.900Z,40.57
2018-10-18T23:04:01.189Z,38.00
2018-10-18T23:06:29.692Z,40.00
2018-10-18T23:08:58.336Z,40.27
2018-10-18T23:11:26.672Z,42.03
2018-10-18T23:13:55.080Z,42.17
2018-10-18T23:16:23.376Z,40.37
2018-10-18T23:18:51.643Z,40.20
2018-10-18T23:21:20.056Z,40.00
2018-10-18T23:23:48.400Z,39.77
2018-10-18T23:26:16.862Z,39.17
2018-10-18T23:28:45.179Z,40.23
2018-10-18T23:31:13.496Z,43.20
2018-10-18T23:33:41.828Z,41.10
2018-10-18T23:36:10.185Z,38.80
2018-10-18T23:38:38.630Z,41.73
2018-10-18T23:41:07.169Z,38.13
2018-10-18T23:43:35.460Z,41.03
2018-10-18T23:46:03.863Z,41.70
2018-10-18T23:48:32.176Z,45.27
2018-10-18T23:51:00.493Z,43.77
2018-10-18T23:53:28.906Z,43.27
2018-10-18T23:55:57.246Z,41.83
2018-10-18T23:58:25.715Z,41.93
